Time;durP1;ratioP1;P1;durP2;ratioP2;P2;SDS_P1;SDS_P2;PMS_P1;PMS_P2;Temp;Humidity;BMP_temperature;BMP_pressure;BME280_temperature;BME280_humidity;BME280_pressure;Samples;Min_cycle;Max_cycle;Signal;HPM_P1;HPM_P2
2022/09/27 00:00:36;;;;;;;3.47;3.17;;;;;;;18.35;100.00;97269.00;5071965;28;20210;-58
2022/09/27 00:03:02;;;;;;;3.20;3.00;;;;;;;18.35;100.00;97266.38;5071923;28;20212;-58
2022/09/27 00:05:28;;;;;;;3.05;2.85;;;;;;;18.22;100.00;97274.03;5071817;28;20263;-58
2022/09/27 00:07:53;;;;;;;3.53;3.30;;;;;;;18.09;100.00;97285.16;5071780;28;20177;-58
2022/09/27 00:10:19;;;;;;;7.13;3.63;;;;;;;18.07;100.00;97294.16;5071691;28;20183;-58
2022/09/27 00:12:45;;;;;;;3.33;3.03;;;;;;;18.10;100.00;97296.41;5071802;28;20229;-58
2022/09/27 00:15:11;;;;;;;3.85;3.10;;;;;;;18.18;100.00;97284.06;5071904;28;20230;-58
2022/09/27 00:17:37;;;;;;;3.40;3.17;;;;;;;18.14;100.00;97277.53;5074822;28;20172;-58
2022/09/27 00:20:04;;;;;;;3.42;3.20;;;;;;;18.20;100.00;97271.59;5075817;28;20685;-58
2022/09/27 00:22:31;;;;;;;5.50;3.30;;;;;;;18.11;100.00;97271.84;5075715;28;20176;-58
2022/09/27 00:24:56;;;;;;;3.67;3.22;;;;;;;17.96;100.00;97248.28;5075969;28;20180;-58
2022/09/27 00:27:24;;;;;;;3.20;2.90;;;;;;;18.10;100.00;97257.13;5075912;28;20182;-58
2022/09/27 00:29:49;;;;;;;3.50;3.15;;;;;;;18.12;100.00;97270.88;5075567;28;20672;-58
2022/09/27 00:32:15;;;;;;;3.78;3.47;;;;;;;18.13;100.00;97264.66;5108033;28;20212;-58
2022/09/27 00:34:40;;;;;;;6.72;3.70;;;;;;;18.16;100.00;97264.28;5075580;28;20172;-58
2022/09/27 00:37:07;;;;;;;4.93;3.47;;;;;;;18.21;100.00;97252.28;5075533;28;20267;-58
2022/09/27 00:39:32;;;;;;;3.53;3.33;;;;;;;18.24;100.00;97256.34;5075278;28;20196;-58
2022/09/27 00:41:58;;;;;;;4.57;3.03;;;;;;;18.31;100.00;97263.31;5107911;28;20179;-58
2022/09/27 00:44:23;;;;;;;4.50;3.95;;;;;;;18.29;100.00;97254.81;5107903;28;20556;-58
2022/09/27 00:46:58;;;;;;;4.00;3.70;;;;;;;18.19;100.00;97248.22;5075267;28;20176;-58
2022/09/27 00:49:46;;;;;;;3.25;3.05;;;;;;;18.18;100.00;97254.47;5075300;28;20152;-58
2022/09/27 00:52:24;;;;;;;3.88;3.58;;;;;;;18.26;100.00;97262.22;5067697;28;20223;-58
2022/09/27 00:54:59;;;;;;;4.10;3.42;;;;;;;18.25;100.00;97264.00;5075337;28;20211;-59
2022/09/27 00:57:25;;;;;;;3.97;3.67;;;;;;;18.26;100.00;97260.41;5075046;28;20676;-58
2022/09/27 00:59:58;;;;;;;3.60;3.30;;;;;;;18.28;100.00;97257.59;5074968;28;20219;-58
2022/09/27 01:02:23;;;;;;;4.32;4.03;;;;;;;18.28;100.00;97252.34;5075229;28;20168;-58
2022/09/27 01:04:50;;;;;;;4.25;3.63;;;;;;;18.29;100.00;97257.41;5074853;28;20172;-58
2022/09/27 01:07:15;;;;;;;3.92;3.55;;;;;;;18.38;100.00;97253.75;5074788;28;20185;-58
2022/09/27 01:09:41;;;;;;;4.28;3.72;;;;;;;18.29;100.00;97246.94;5074979;28;20172;-58
2022/09/27 01:12:28;;;;;;;3.83;3.47;;;;;;;18.37;100.00;97246.09;5074695;28;20721;-58
2022/09/27 01:15:12;;;;;;;4.10;3.80;;;;;;;18.38;100.00;97237.22;5074738;28;20222;-58
2022/09/27 01:18:10;;;;;;;4.13;3.72;;;;;;;18.39;100.00;97237.06;5074759;28;20663;-58
2022/09/27 01:21:13;;;;;;;3.95;3.65;;;;;;;18.35;100.00;97232.34;5072414;28;20206;-58
2022/09/27 01:23:44;;;;;;;4.30;3.90;;;;;;;18.28;100.00;97221.75;5073881;28;20160;-58
2022/09/27 01:26:30;;;;;;;3.80;3.50;;;;;;;18.18;100.00;97221.22;5073417;28;20255;-58
2022/09/27 01:29:14;;;;;;;4.18;3.60;;;;;;;18.24;100.00;97230.16;5073244;28;20165;-58
2022/09/27 01:31:52;;;;;;;5.78;3.90;;;;;;;18.32;100.00;97243.19;5073445;28;20696;-58
2022/09/27 01:34:36;;;;;;;4.60;4.20;;;;;;;18.43;100.00;97240.91;5073323;28;20207;-58
2022/09/27 01:37:09;;;;;;;3.88;3.58;;;;;;;18.48;100.00;97230.69;5073454;28;20172;-58
2022/09/27 01:39:55;;;;;;;4.07;3.67;;;;;;;18.57;100.00;97239.28;5073385;28;20195;-58
2022/09/27 01:42:30;;;;;;;5.22;4.00;;;;;;;18.53;100.00;97251.13;5073344;28;20163;-58
2022/09/27 01:45:14;;;;;;;3.92;3.63;;;;;;;18.53;100.00;97262.41;5073137;28;20318;-58
2022/09/27 01:47:54;;;;;;;4.00;3.70;;;;;;;18.53;100.00;97256.38;5073064;28;20172;-58
2022/09/27 01:50:36;;;;;;;4.32;3.92;;;;;;;18.27;100.00;97240.25;5073245;28;20156;-59
2022/09/27 01:53:07;;;;;;;4.15;3.80;;;;;;;18.24;100.00;97233.56;5073147;28;20169;-59
2022/09/27 01:55:37;;;;;;;4.95;4.28;;;;;;;18.19;100.00;97245.59;5073127;28;20171;-59
2022/09/27 01:58:28;;;;;;;4.82;4.43;;;;;;;18.24;100.00;97248.50;5072845;28;20179;-59
2022/09/27 02:00:55;;;;;;;5.90;4.50;;;;;;;18.34;100.00;97242.03;5073195;28;20169;-59
2022/09/27 02:03:37;;;;;;;4.72;4.32;;;;;;;18.24;100.00;97245.88;5072839;28;20175;-59
2022/09/27 02:06:12;;;;;;;6.45;4.20;;;;;;;18.05;100.00;97225.44;5072876;28;20572;-59
2022/09/27 02:08:46;;;;;;;5.75;4.00;;;;;;;18.12;100.00;97234.22;5072744;28;20163;-59
2022/09/27 02:11:13;;;;;;;4.80;4.50;;;;;;;18.15;100.00;97241.72;5072975;28;20198;-59
2022/09/27 02:13:45;;;;;;;5.00;4.05;;;;;;;18.19;100.00;97233.31;5072700;28;20689;-59
2022/09/27 02:16:40;;;;;;;4.40;4.03;;;;;;;18.21;100.00;97225.28;5072626;28;20161;-58
2022/09/27 02:19:27;;;;;;;5.88;4.85;;;;;;;18.28;100.00;97221.75;5032825;28;1152174;-58
2022/09/27 02:22:14;;;;;;;5.35;4.85;;;;;;;18.26;100.00;97215.06;5073736;28;20187;-59
2022/09/27 02:24:45;;;;;;;6.50;4.80;;;;;;;18.13;100.00;97212.28;5073705;28;20611;-59
2022/09/27 02:27:23;;;;;;;5.97;4.47;;;;;;;18.09;100.00;97221.50;5105875;28;20196;-59
2022/09/27 02:30:15;;;;;;;4.95;4.45;;;;;;;17.70;100.00;97226.97;5073541;28;20664;-59
2022/09/27 02:32:41;;;;;;;10.40;5.30;;;;;;;17.66;100.00;97219.66;5071171;28;20215;-58
2022/09/27 02:35:35;;;;;;;4.90;4.50;;;;;;;17.85;100.00;97213.91;5073167;28;20374;-59
2022/09/27 02:38:03;;;;;;;5.28;4.78;;;;;;;17.77;100.00;97221.84;5073485;28;20183;-58
2022/09/27 02:40:34;;;;;;;5.38;4.13;;;;;;;17.74;100.00;97232.63;5072252;28;20180;-59
2022/09/27 02:43:02;;;;;;;5.47;4.78;;;;;;;17.61;100.00;97235.06;5073019;28;20164;-59
2022/09/27 02:45:34;;;;;;;5.90;5.00;;;;;;;17.55;100.00;97238.38;5072914;28;20173;-58
2022/09/27 02:48:23;;;;;;;4.93;4.50;;;;;;;17.54;100.00;97237.56;5073007;28;20217;-59
2022/09/27 02:50:54;;;;;;;5.72;4.72;;;;;;;17.81;100.00;97244.00;5053510;28;20199;-59
2022/09/27 02:53:33;;;;;;;7.00;5.13;;;;;;;17.84;100.00;97254.16;5105360;28;20180;-58
2022/09/27 02:56:26;;;;;;;5.25;4.75;;;;;;;17.81;100.00;97251.88;5072752;28;20222;-58
2022/09/27 02:59:28;;;;;;;5.55;4.97;;;;;;;17.81;100.00;97236.16;5073150;28;20200;-58
2022/09/27 03:02:13;;;;;;;6.13;5.20;;;;;;;17.66;100.00;97223.06;5105214;28;20183;-59
2022/09/27 03:04:49;;;;;;;6.80;5.20;;;;;;;17.54;100.00;97208.00;5072807;28;20164;-58
2022/09/27 03:07:16;;;;;;;6.45;4.45;;;;;;;17.33;100.00;97202.56;5072554;28;20180;-58
2022/09/27 03:09:47;;;;;;;4.90;4.55;;;;;;;17.42;100.00;97212.00;5072537;28;20195;-58
2022/09/27 03:12:19;;;;;;;5.57;5.18;;;;;;;17.37;100.00;97219.53;5072725;28;20200;-59
2022/09/27 03:14:45;;;;;;;7.03;4.78;;;;;;;17.26;100.00;97225.19;5072547;28;20153;-59
2022/09/27 03:17:11;;;;;;;7.45;5.40;;;;;;;17.29;100.00;97227.44;5072430;28;20225;-59
2022/09/27 03:19:36;;;;;;;8.43;5.50;;;;;;;17.12;100.00;97220.69;5071998;28;20649;-59
2022/09/27 03:22:02;;;;;;;5.72;5.03;;;;;;;17.28;100.00;97220.59;5072242;28;20180;-59
2022/09/27 03:24:27;;;;;;;6.50;5.72;;;;;;;17.30;100.00;97202.91;5072260;28;20549;-59
2022/09/27 03:26:52;;;;;;;5.95;5.45;;;;;;;17.29;100.00;97211.75;5072283;28;20164;-59
2022/09/27 03:29:18;;;;;;;8.68;5.65;;;;;;;17.07;100.00;97212.56;5072368;28;20261;-58
2022/09/27 03:31:43;;;;;;;7.32;5.50;;;;;;;17.19;100.00;97203.34;5072394;28;20561;-59
2022/09/27 03:34:09;;;;;;;6.82;5.47;;;;;;;17.23;100.00;97196.75;5072148;28;20168;-59
2022/09/27 03:36:34;;;;;;;7.35;5.20;;;;;;;17.32;100.00;97201.75;5072148;28;20357;-59
2022/09/27 03:38:59;;;;;;;6.15;5.20;;;;;;;17.38;100.00;97200.28;5071993;28;20249;-59
2022/09/27 03:41:25;;;;;;;6.63;5.55;;;;;;;17.32;100.00;97200.94;5072127;28;20173;-58
2022/09/27 03:43:50;;;;;;;5.63;5.18;;;;;;;17.33;100.00;97190.31;5071982;28;20701;-59
2022/09/27 03:46:16;;;;;;;7.57;6.43;;;;;;;17.34;100.00;97188.50;5071990;28;20173;-59
2022/09/27 03:48:41;;;;;;;6.10;4.97;;;;;;;17.38;100.00;97189.81;5072260;28;20174;-59
2022/09/27 03:51:07;;;;;;;5.53;5.03;;;;;;;17.30;100.00;97184.59;5071828;28;20173;-59
2022/09/27 03:53:32;;;;;;;8.52;5.22;;;;;;;17.26;100.00;97181.53;5071907;28;20175;-59
2022/09/27 03:55:58;;;;;;;5.95;5.10;;;;;;;17.31;100.00;97173.19;5072124;28;20279;-59
2022/09/27 03:58:23;;;;;;;5.65;5.13;;;;;;;17.38;100.00;97176.75;5071830;28;20207;-59
2022/09/27 04:00:49;;;;;;;5.00;4.60;;;;;;;17.43;100.00;97187.50;5071831;28;20771;-58
2022/09/27 04:03:16;;;;;;;5.40;4.90;;;;;;;17.39;100.00;97183.59;5071953;28;20661;-59
2022/09/27 04:05:41;;;;;;;8.75;5.50;;;;;;;17.30;100.00;97171.53;5104340;28;20176;-59
2022/09/27 04:08:07;;;;;;;5.90;4.90;;;;;;;17.03;100.00;97180.72;5072037;28;20168;-59
2022/09/27 04:10:33;;;;;;;5.03;4.63;;;;;;;16.86;100.00;97184.44;5071665;28;20246;-59
2022/09/27 04:12:59;;;;;;;6.68;5.22;;;;;;;16.83;100.00;97182.19;5071803;28;20172;-59
2022/09/27 04:15:24;;;;;;;5.88;5.13;;;;;;;16.77;100.00;97172.44;5071785;28;20167;-59
2022/09/27 04:17:50;;;;;;;6.97;5.25;;;;;;;16.90;100.00;97170.06;5071622;28;20206;-58
2022/09/27 04:20:17;;;;;;;6.55;5.47;;;;;;;16.87;100.00;97180.03;5071315;28;20308;-59
2022/09/27 04:22:44;;;;;;;5.95;5.30;;;;;;;16.91;100.00;97170.88;5072252;28;20615;-58
2022/09/27 04:25:10;;;;;;;7.25;5.22;;;;;;;16.95;100.00;97157.28;5071599;28;20175;-59
2022/09/27 04:27:35;;;;;;;7.10;5.65;;;;;;;17.08;100.00;97164.56;5071601;28;20249;-59
2022/09/27 04:30:02;;;;;;;6.90;5.47;;;;;;;17.13;100.00;97170.06;5071653;28;20638;-59
2022/09/27 04:32:27;;;;;;;7.13;5.97;;;;;;;17.28;100.00;97168.28;5071679;28;20221;-59
2022/09/27 04:37:37;;;;;;;8.98;5.38;;;;;;;16.89;100.00;97157.97;5071560;28;20222;-59
2022/09/27 04:40:03;;;;;;;6.22;5.65;;;;;;;16.87;100.00;97159.97;5071726;28;20196;-59
2022/09/27 04:42:28;;;;;;;6.82;5.50;;;;;;;16.96;100.00;97158.91;5071537;28;20172;-59
2022/09/27 04:44:54;;;;;;;5.57;5.18;;;;;;;17.04;100.00;97160.66;5071424;28;20179;-59
2022/09/27 04:47:20;;;;;;;11.18;6.07;;;;;;;17.11;100.00;97151.13;5071500;28;20257;-59
2022/09/27 04:49:46;;;;;;;10.80;6.65;;;;;;;17.20;100.00;97155.31;5071637;28;20179;-58
2022/09/27 04:52:13;;;;;;;10.45;6.50;;;;;;;17.28;100.00;97160.44;5071754;28;20180;-59
2022/09/27 04:54:39;;;;;;;9.13;5.72;;;;;;;17.26;100.00;97159.81;5071365;28;20180;-59
2022/09/27 04:57:04;;;;;;;6.95;5.88;;;;;;;17.27;100.00;97177.97;5071337;28;20173;-59
2022/09/27 04:59:30;;;;;;;8.07;6.10;;;;;;;17.33;100.00;97166.78;5071308;28;20192;-59
2022/09/27 05:01:58;;;;;;;6.90;6.13;;;;;;;17.36;100.00;97155.97;5071600;28;20169;-58
2022/09/27 05:04:24;;;;;;;7.07;5.50;;;;;;;17.48;100.00;97167.66;5074983;28;20179;-59
2022/09/27 05:06:49;;;;;;;8.18;5.47;;;;;;;17.59;100.00;97158.53;5075209;28;20556;-59
2022/09/27 05:09:14;;;;;;;7.05;6.22;;;;;;;17.62;100.00;97150.34;5075159;28;20220;-59
2022/09/27 05:11:40;;;;;;;8.52;6.03;;;;;;;17.72;100.00;97150.91;5074763;28;20250;-58
2022/09/27 05:14:05;;;;;;;6.97;6.25;;;;;;;17.80;100.00;97151.63;5074843;28;20562;-59
2022/09/27 05:16:32;;;;;;;7.45;6.22;;;;;;;17.86;100.00;97165.78;5073562;28;20161;-59
2022/09/27 05:18:58;;;;;;;8.57;5.78;;;;;;;17.94;100.00;97144.75;5074516;28;20222;-59
2022/09/27 05:21:23;;;;;;;7.35;6.65;;;;;;;18.04;100.00;97142.69;5074787;28;20157;-59
2022/09/27 05:23:48;;;;;;;12.27;7.32;;;;;;;18.07;100.00;97139.72;5107230;28;20172;-59
2022/09/27 05:26:14;;;;;;;9.90;7.15;;;;;;;18.13;100.00;97133.75;5074602;28;20635;-59
2022/09/27 05:28:42;;;;;;;7.18;6.43;;;;;;;18.19;100.00;97133.03;5074519;28;20713;-59
2022/09/27 05:31:08;;;;;;;11.52;6.88;;;;;;;18.22;100.00;97143.13;5074447;28;20238;-59
2022/09/27 05:33:33;;;;;;;13.68;7.85;;;;;;;18.25;100.00;97148.78;5074700;28;20169;-59
2022/09/27 05:36:01;;;;;;;6.72;5.95;;;;;;;18.33;100.00;97155.78;5107012;28;20207;-59
2022/09/27 05:38:27;;;;;;;8.65;6.18;;;;;;;18.42;100.00;97159.91;5072947;28;20236;-59
2022/09/27 05:40:52;;;;;;;6.63;5.97;;;;;;;18.53;100.00;97159.44;5074211;28;20203;-59
2022/09/27 05:43:18;;;;;;;10.07;6.63;;;;;;;18.65;100.00;97147.47;5074514;28;20175;-59
2022/09/27 05:45:44;;;;;;;8.63;6.18;;;;;;;18.75;100.00;97150.59;5074478;28;20172;-59
2022/09/27 05:48:11;;;;;;;8.80;7.07;;;;;;;18.81;100.00;97147.22;5074405;28;20168;-59
2022/09/27 05:50:37;;;;;;;13.07;7.85;;;;;;;18.85;100.00;97130.97;5073826;28;20177;-59
2022/09/27 05:53:03;;;;;;;9.93;8.18;;;;;;;18.95;100.00;97146.38;5074049;28;20226;-59
2022/09/27 05:55:29;;;;;;;10.50;8.45;;;;;;;18.99;100.00;97144.97;5073966;28;20179;-59
2022/09/27 05:57:57;;;;;;;10.18;7.90;;;;;;;18.99;100.00;97140.56;5073957;28;20172;-59
2022/09/27 06:00:24;;;;;;;9.82;8.82;;;;;;;19.02;100.00;97127.09;5073904;28;20208;-59
2022/09/27 06:02:58;;;;;;;12.13;8.60;;;;;;;19.05;100.00;97131.16;5073937;28;20176;-59
2022/09/27 06:05:25;;;;;;;11.52;8.70;;;;;;;19.05;100.00;97147.66;5074191;28;20161;-59
2022/09/27 06:07:56;;;;;;;10.27;5.43;;;;;;;19.11;100.00;97125.94;5073769;28;20204;-59
2022/09/27 06:10:21;;;;;;;6.53;4.75;;;;;;;18.98;100.00;97125.00;5073838;28;20156;-59
2022/09/27 06:12:47;;;;;;;8.90;5.15;;;;;;;19.01;100.00;97135.13;5073742;28;20180;-59
2022/09/27 06:15:13;;;;;;;6.18;5.60;;;;;;;19.05;100.00;97133.78;5072557;28;20597;-59
2022/09/27 06:17:39;;;;;;;6.53;5.53;;;;;;;19.06;100.00;97138.81;5106228;28;20552;-59
2022/09/27 06:20:04;;;;;;;6.82;5.13;;;;;;;19.05;100.00;97134.56;5073400;28;20265;-59
2022/09/27 06:22:30;;;;;;;6.38;5.78;;;;;;;19.12;100.00;97130.19;5073561;28;20260;-59
2022/09/27 06:24:56;;;;;;;25.52;7.10;;;;;;;19.15;100.00;97126.38;5073486;28;20176;-59
2022/09/27 06:27:21;;;;;;;6.05;5.20;;;;;;;19.21;100.00;97136.13;5073541;28;20215;-59
2022/09/27 06:29:46;;;;;;;8.95;5.40;;;;;;;19.26;100.00;97128.50;5073328;28;20168;-59
2022/09/27 06:32:12;;;;;;;10.80;6.13;;;;;;;19.31;100.00;97131.38;5105888;28;20263;-59
2022/09/27 06:34:38;;;;;;;7.28;5.95;;;;;;;19.32;100.00;97140.88;5073351;28;20165;-59
2022/09/27 06:37:03;;;;;;;8.32;6.22;;;;;;;19.37;100.00;97141.13;5073249;28;20172;-59
2022/09/27 06:39:32;;;;;;;9.77;6.80;;;;;;;19.35;100.00;97154.41;5073387;28;20275;-59
2022/09/27 06:41:58;;;;;;;7.93;7.07;;;;;;;19.47;100.00;97152.09;5105631;28;20177;-59
2022/09/27 06:44:24;;;;;;;13.75;7.60;;;;;;;19.55;100.00;97136.19;5073346;28;20199;-59
2022/09/27 06:46:51;;;;;;;10.30;7.65;;;;;;;19.60;100.00;97136.44;5073324;28;20298;-59
2022/09/27 06:49:17;;;;;;;9.77;7.90;;;;;;;19.65;100.00;97139.31;5072990;28;20161;-59
2022/09/27 06:51:42;;;;;;;11.38;8.23;;;;;;;19.64;100.00;97142.94;5072969;28;20657;-59
2022/09/27 06:54:08;;;;;;;10.50;8.98;;;;;;;19.53;100.00;97141.63;5072960;28;20164;-59
2022/09/27 06:56:33;;;;;;;18.38;7.38;;;;;;;19.56;100.00;97143.06;5071529;28;20666;-59
2022/09/27 07:01:44;;;;;;;12.85;8.38;;;;;;;19.80;100.00;97134.75;5073100;28;20214;-59
2022/09/27 07:04:12;;;;;;;10.18;8.70;;;;;;;19.94;100.00;97136.44;5072734;28;20646;-59
2022/09/27 07:06:38;;;;;;;15.18;9.18;;;;;;;20.05;98.84;97156.91;5072944;28;20226;-59
2022/09/27 07:09:05;;;;;;;13.40;7.65;;;;;;;20.10;97.65;97144.06;5072834;28;20558;-59
2022/09/27 07:11:35;;;;;;;18.52;8.65;;;;;;;20.15;97.33;97152.13;5072666;28;20192;-59
2022/09/27 07:14:00;;;;;;;17.10;9.88;;;;;;;20.23;97.03;97165.13;5072465;28;20173;-59
2022/09/27 07:16:26;;;;;;;19.90;8.75;;;;;;;20.27;96.70;97161.91;5072811;28;20179;-59
2022/09/27 07:18:52;;;;;;;19.05;8.95;;;;;;;20.30;95.30;97152.81;5072254;28;20197;-58
2022/09/27 07:21:17;;;;;;;13.35;8.07;;;;;;;20.36;96.33;97144.97;5072411;28;20650;-59
2022/09/27 07:23:43;;;;;;;11.27;8.40;;;;;;;20.38;96.19;97144.75;5072657;28;20179;-59
2022/09/27 07:26:09;;;;;;;12.98;8.68;;;;;;;20.38;95.98;97139.50;5071999;28;20547;-59
2022/09/27 07:28:35;;;;;;;15.40;8.68;;;;;;;20.43;96.18;97134.47;5072265;28;20701;-59
2022/09/27 07:31:02;;;;;;;16.50;8.00;;;;;;;20.51;96.49;97143.00;5072289;28;20768;-59
2022/09/27 07:33:29;;;;;;;15.55;8.77;;;;;;;20.60;95.12;97133.09;5072479;28;20183;-59
2022/09/27 07:35:54;;;;;;;12.00;8.50;;;;;;;20.65;95.54;97128.88;5072507;28;20172;-59
2022/09/27 07:38:19;;;;;;;14.32;8.73;;;;;;;20.73;95.38;97122.63;5072207;28;20180;-59
2022/09/27 07:40:45;;;;;;;13.00;9.27;;;;;;;20.74;95.05;97116.38;5072340;28;20180;-59
2022/09/27 07:43:11;;;;;;;12.10;9.18;;;;;;;20.78;94.65;97128.91;5072259;28;20653;-59
2022/09/27 07:45:37;;;;;;;12.05;8.65;;;;;;;20.88;94.19;97139.03;5072099;28;20173;-59
2022/09/27 07:48:12;;;;;;;11.95;9.15;;;;;;;20.94;94.07;97138.28;5072107;28;20164;-59
2022/09/27 07:50:37;;;;;;;14.80;9.20;;;;;;;20.93;94.44;97139.28;5072198;28;20645;-59
2022/09/27 07:53:04;;;;;;;10.13;8.77;;;;;;;20.96;94.04;97144.94;5072006;28;20168;-59
2022/09/27 07:55:30;;;;;;;11.18;9.32;;;;;;;20.93;94.38;97142.72;5072016;28;20236;-59
2022/09/27 07:58:09;;;;;;;11.02;9.07;;;;;;;20.97;93.67;97146.56;5071940;28;20231;-59
2022/09/27 08:00:35;;;;;;;14.52;9.57;;;;;;;20.89;93.18;97145.94;5072020;28;20572;-59
2022/09/27 08:03:06;;;;;;;12.25;9.45;;;;;;;21.00;93.93;97148.81;5071957;28;20200;-59
2022/09/27 08:05:33;;;;;;;17.02;9.70;;;;;;;21.11;93.17;97150.03;5104525;28;20607;-59
2022/09/27 08:07:59;;;;;;;11.70;8.38;;;;;;;21.12;92.49;97143.75;5071827;28;20168;-59
2022/09/27 08:10:30;;;;;;;15.45;8.95;;;;;;;21.26;91.12;97146.19;5071869;28;20194;-59
2022/09/27 08:12:56;;;;;;;13.70;8.13;;;;;;;21.39;90.38;97142.75;5071870;28;20742;-59
2022/09/27 08:15:21;;;;;;;16.15;8.60;;;;;;;21.56;89.69;97131.59;5072041;28;20173;-59
2022/09/27 08:17:47;;;;;;;8.32;7.53;;;;;;;21.73;89.01;97147.84;5072049;28;20168;-59
2022/09/27 08:20:13;;;;;;;10.75;8.43;;;;;;;21.90;88.20;97141.09;5071472;28;20211;-59
2022/09/27 08:22:41;;;;;;;7.75;6.95;;;;;;;21.99;85.84;97137.22;5072024;28;20226;-59
2022/09/27 08:25:07;;;;;;;12.48;7.22;;;;;;;22.02;85.74;97136.84;5071671;28;20569;-59
2022/09/27 08:27:32;;;;;;;9.85;7.72;;;;;;;22.06;84.97;97141.47;5072038;28;20177;-59
2022/09/27 08:29:58;;;;;;;10.13;7.70;;;;;;;22.12;85.27;97134.53;5071625;28;20546;-59
2022/09/27 08:32:24;;;;;;;14.80;7.65;;;;;;;22.19;85.19;97130.06;5104182;28;20255;-59
2022/09/27 08:34:49;;;;;;;9.27;7.45;;;;;;;22.22;82.98;97140.19;5071872;28;20172;-59
2022/09/27 08:37:15;;;;;;;11.45;8.18;;;;;;;22.22;84.12;97150.75;5072554;28;20207;-59
2022/09/27 08:39:40;;;;;;;9.70;8.65;;;;;;;22.18;83.53;97134.53;5075380;28;20603;-59
2022/09/27 08:42:31;;;;;;;11.60;8.93;;;;;;;22.05;85.01;97136.41;5108097;28;20198;-59
2022/09/27 08:45:09;;;;;;;9.75;8.77;;;;;;;22.03;85.67;97123.44;5075520;28;20196;-59
2022/09/27 08:47:42;;;;;;;12.63;8.30;;;;;;;22.14;84.08;97119.38;5075657;28;20165;-59
2022/09/27 08:50:25;;;;;;;10.77;8.93;;;;;;;22.12;85.14;97124.00;5075581;28;20622;-59
2022/09/27 08:52:59;;;;;;;11.57;8.40;;;;;;;22.23;82.58;97131.25;5075259;28;20157;-59
2022/09/27 08:55:40;;;;;;;12.85;9.38;;;;;;;22.20;82.96;97115.88;5075522;28;20241;-59
2022/09/27 08:58:20;;;;;;;14.93;9.70;;;;;;;22.25;83.88;97119.50;5075124;28;20712;-59
2022/09/27 09:00:50;;;;;;;11.40;8.30;;;;;;;22.39;83.07;97120.25;5075615;28;20230;-59
2022/09/27 09:03:20;;;;;;;9.25;8.13;;;;;;;22.51;83.15;97121.25;5057261;28;20172;-59
2022/09/27 09:06:09;;;;;;;9.82;7.47;;;;;;;22.68;81.72;97109.19;5075023;28;20676;-59
2022/09/27 09:08:49;;;;;;;10.82;8.38;;;;;;;22.76;80.05;97111.56;5075211;28;20161;-59
2022/09/27 09:14:25;;;;;;;9.93;8.32;;;;;;;23.01;78.52;97105.31;5075379;28;20167;-59
2022/09/27 09:17:23;;;;;;;11.40;7.50;;;;;;;23.09;78.16;97109.53;5074816;28;20156;-59
2022/09/27 09:20:20;;;;;;;13.43;7.03;;;;;;;23.17;76.87;97114.56;5088131;28;20203;-59
2022/09/27 09:23:07;;;;;;;11.85;8.57;;;;;;;23.25;76.97;97109.03;5074508;28;20576;-59
2022/09/27 09:25:52;;;;;;;10.85;7.63;;;;;;;23.26;77.07;97105.34;5094341;28;20184;-59
2022/09/27 09:28:51;;;;;;;12.30;8.27;;;;;;;23.33;75.63;97106.09;5094809;28;20167;-58
2022/09/27 09:31:46;;;;;;;13.93;7.53;;;;;;;23.33;76.01;97082.34;5095336;28;20169;-59
2022/09/27 09:34:19;;;;;;;10.77;7.15;;;;;;;23.32;76.64;97080.75;5094726;28;20632;-58
2022/09/27 09:37:15;;;;;;;8.50;7.47;;;;;;;23.30;76.56;97082.81;5093817;28;20184;-59
2022/09/27 09:39:46;;;;;;;10.15;7.53;;;;;;;23.30;78.06;97066.97;5094742;28;20196;-59
2022/09/27 09:42:11;;;;;;;7.22;6.53;;;;;;;23.49;76.10;97064.09;5094892;28;20530;-59
2022/09/27 09:44:40;;;;;;;9.35;7.57;;;;;;;23.60;75.84;97063.38;5094777;28;20184;-59
2022/09/27 09:47:28;;;;;;;9.48;7.43;;;;;;;23.73;75.10;97059.81;5094658;28;20240;-58
2022/09/27 09:50:00;;;;;;;11.38;7.25;;;;;;;23.83;74.63;97046.91;5094204;28;20232;-59
2022/09/27 09:52:39;;;;;;;7.70;6.40;;;;;;;23.92;73.37;97041.91;5094633;28;20278;-59
2022/09/27 09:55:27;;;;;;;7.10;6.28;;;;;;;23.97;72.48;97043.09;5094532;28;20164;-59
2022/09/27 09:58:02;;;;;;;10.27;7.10;;;;;;;24.04;73.95;97045.44;5093969;28;20271;-58
2022/09/27 10:00:27;;;;;;;8.25;6.20;;;;;;;24.20;73.71;97047.47;5094423;28;20202;-58
2022/09/27 10:02:56;;;;;;;6.65;5.95;;;;;;;24.35;70.78;97045.25;5094242;28;20175;-59
2022/09/27 10:05:24;;;;;;;8.13;5.68;;;;;;;24.41;69.77;97047.00;5094196;28;20184;-58
2022/09/27 10:07:53;;;;;;;6.57;5.55;;;;;;;24.46;70.50;97033.91;5094488;28;20220;-59
2022/09/27 10:10:19;;;;;;;6.35;5.75;;;;;;;24.47;68.90;97029.41;5093981;28;20205;-58
2022/09/27 10:12:46;;;;;;;9.50;5.75;;;;;;;24.32;69.60;97032.47;5093994;28;20185;-58
2022/09/27 10:15:20;;;;;;;10.88;5.95;;;;;;;24.45;69.30;97023.56;5094218;28;20182;-59
2022/09/27 10:17:49;;;;;;;6.18;5.05;;;;;;;24.62;68.71;97028.00;5092600;28;20183;-59
2022/09/27 10:20:30;;;;;;;6.05;4.53;;;;;;;24.80;64.33;97024.47;5092813;28;20211;-58
2022/09/27 10:23:20;;;;;;;9.20;4.68;;;;;;;24.95;63.97;97012.41;5094266;28;20183;-58
2022/09/27 10:25:58;;;;;;;7.43;4.65;;;;;;;24.98;63.59;97006.69;5094232;28;20625;-59
2022/09/27 10:28:37;;;;;;;5.70;4.95;;;;;;;25.21;62.20;97008.53;5093891;28;20554;-59
2022/09/27 10:31:17;;;;;;;8.75;4.82;;;;;;;25.43;61.43;97005.06;5093593;28;20211;-59
2022/09/27 10:34:23;;;;;;;5.35;4.20;;;;;;;25.75;59.74;97001.00;5093881;28;20171;-59
2022/09/27 10:37:16;;;;;;;5.68;4.72;;;;;;;25.70;59.59;96990.31;5086623;28;20256;-59
2022/09/27 10:39:41;;;;;;;6.07;4.90;;;;;;;25.95;59.59;96982.09;5093450;28;20198;-59
2022/09/27 10:42:35;;;;;;;7.35;4.78;;;;;;;26.16;58.91;96990.19;5093452;28;20559;-59
2022/09/27 10:45:25;;;;;;;6.47;4.72;;;;;;;26.38;57.57;97004.41;5092747;28;20191;-59
2022/09/27 10:47:51;;;;;;;5.50;5.00;;;;;;;26.58;57.24;97001.31;5093350;28;20168;-58
2022/09/27 10:50:25;;;;;;;4.78;4.18;;;;;;;26.71;57.05;96993.84;5093275;28;20688;-59
2022/09/27 10:53:03;;;;;;;5.22;4.60;;;;;;;26.86;56.93;96994.09;5092022;28;20174;-59
2022/09/27 10:55:34;;;;;;;5.32;4.43;;;;;;;27.01;56.59;96986.34;5093525;28;20328;-58
2022/09/27 10:58:01;;;;;;;6.85;4.50;;;;;;;27.15;56.29;96992.97;5093136;28;20168;-59
2022/09/27 11:00:35;;;;;;;5.90;4.82;;;;;;;27.29;56.04;96994.25;5092378;28;20204;-59
2022/09/27 11:03:04;;;;;;;5.05;4.18;;;;;;;27.46;53.82;96992.34;5093008;28;20174;-59
2022/09/27 11:05:37;;;;;;;4.80;4.50;;;;;;;27.54;53.97;96983.97;5093234;28;20171;-59
2022/09/27 11:08:17;;;;;;;7.90;4.28;;;;;;;27.68;53.72;96990.53;5093280;28;20194;-59
2022/09/27 11:10:43;;;;;;;8.10;5.03;;;;;;;27.59;53.41;96985.91;5091558;28;20195;-59
2022/09/27 11:13:14;;;;;;;4.45;4.10;;;;;;;27.73;53.32;96976.50;5092853;28;20182;-59
2022/09/27 11:15:55;;;;;;;4.82;4.07;;;;;;;27.17;54.65;96966.97;5091550;28;20361;-59
2022/09/27 11:18:30;;;;;;;6.65;4.30;;;;;;;26.98;55.30;96968.25;5092893;28;20192;-59
2022/09/27 11:21:39;;;;;;;5.18;4.05;;;;;;;27.15;54.06;96970.88;5092795;28;20195;-59
2022/09/27 11:24:38;;;;;;;6.57;4.13;;;;;;;26.92;53.56;96965.75;5080824;28;20282;-59
2022/09/27 11:27:06;;;;;;;7.28;4.97;;;;;;;27.05;54.72;96960.94;5092819;28;20209;-59
2022/09/27 11:29:46;;;;;;;7.38;3.95;;;;;;;27.09;55.05;96970.03;5091314;28;20179;-59
2022/09/27 11:32:26;;;;;;;5.60;4.13;;;;;;;26.97;54.18;96966.66;5092709;28;20238;-58
2022/09/27 11:34:54;;;;;;;7.50;4.15;;;;;;;26.93;53.25;96960.22;5092661;28;20217;-59
2022/09/27 11:37:38;;;;;;;6.10;4.28;;;;;;;26.75;54.36;96955.16;5092446;28;20208;-59
2022/09/27 11:40:14;;;;;;;5.72;4.00;;;;;;;26.60;55.18;96951.47;5092615;28;20203;-59
2022/09/27 11:42:58;;;;;;;4.78;4.38;;;;;;;26.44;57.16;96955.69;5092932;28;20609;-59
2022/09/27 11:45:52;;;;;;;4.38;3.90;;;;;;;26.41;56.68;96950.06;5092489;28;20179;-59
2022/09/27 11:48:36;;;;;;;8.95;3.65;;;;;;;26.39;55.87;96934.38;5092592;28;20246;-59
2022/09/27 11:51:46;;;;;;;10.73;4.40;;;;;;;26.29;57.47;96930.75;5091007;28;20266;-59
2022/09/27 11:54:26;;;;;;;3.58;3.38;;;;;;;26.23;57.00;96937.81;5069993;28;20187;-59
2022/09/27 11:56:58;;;;;;;5.28;3.83;;;;;;;26.17;56.29;96932.63;5069946;28;20686;-59